This is the latest recevied weather packets stored in our database for station/object K8DJB-1. If no packets are shown the sender has not sent any weather packets the latest 1 day(s).
| Time | Temp. | Humidity | Pressure | Rain* | Wind** | Luminosity | Snow |
|---|---|---|---|---|---|---|---|
| 1777962824 | 12.78° C | 76% | 1000 hPa | 0 mm | 1.79 m/s, 239° | - | - |
| 1777962524 | 12.78° C | 77% | 1000.1 hPa | 0 mm | 1.34 m/s, 249° | - | - |
| 1777962224 | 12.78° C | 76% | 999.6 hPa | 0 mm | 1.34 m/s, 203° | - | - |
| 1777961924 | 13.33° C | 76% | 999.8 hPa | 0 mm | 1.34 m/s, 232° | - | - |
| 1777961624 | 13.33° C | 76% | 1000 hPa | 0 mm | 0.45 m/s, 241° | - | - |
| 1777961324 | 13.33° C | 76% | 1000 hPa | 0 mm | 1.79 m/s, 240° | - | - |
| 1777961024 | 13.33° C | 76% | 1000 hPa | 0 mm | 2.24 m/s, 256° | - | - |
| 1777960724 | 13.89° C | 75% | 1000 hPa | 0 mm | 2.68 m/s, 271° | - | - |
| 1777960424 | 13.89° C | 75% | 999.9 hPa | 0 mm | 2.24 m/s, 279° | - | - |
| 1777960124 | 13.89° C | 74% | 999.6 hPa | 0 mm | 1.79 m/s, 264° | - | - |
| 1777959824 | 14.44° C | 74% | 999.6 hPa | 0 mm | 2.68 m/s, 274° | - | - |
| 1777959524 | 14.44° C | 74% | 999.5 hPa | 0 mm | 1.34 m/s, 257° | - | - |
| 1777959224 | 14.44° C | 73% | 999.6 hPa | 0 mm | 3.13 m/s, 237° | - | - |
| 1777958924 | 15° C | 73% | 999.5 hPa | 0 mm | 2.24 m/s, 241° | - | - |
| 1777958624 | 15° C | 72% | 999.3 hPa | 0 mm | 2.68 m/s, 236° | - | - |
| 1777958324 | 15.56° C | 72% | 999.3 hPa | 0 mm | 2.24 m/s, 255° | - | - |
| 1777958024 | 15.56° C | 73% | 999.2 hPa | 0 mm | 2.68 m/s, 263° | - | - |
| 1777957724 | 15.56° C | 74% | 999.1 hPa | 0 mm | 1.34 m/s, 256° | - | - |
| 1777957424 | 15.56° C | 74% | 999.1 hPa | 0 mm | 0.89 m/s, 244° | - | - |
| 1777957124 | 15.56° C | 73% | 999 hPa | 0 mm | 0.89 m/s, 249° | - | - |
| 1777956824 | 16.11° C | 72% | 998.9 hPa | 0 mm | 1.34 m/s, 258° | - | - |
| 1777956524 | 16.11° C | 72% | 998.8 hPa | 0 mm | 0.89 m/s, 234° | - | - |
| 1777956224 | 16.11° C | 72% | 998.8 hPa | 0 mm | 0.89 m/s, 234° | - | - |
| 1777955924 | 16.67° C | 72% | 998.7 hPa | 0 mm | 1.34 m/s, 228° | - | - |
| 1777955624 | 16.67° C | 72% | 998.6 hPa | 0 mm | 1.34 m/s, 228° | - | - |
* Rain latest hour (hover to see other rain measurements)
** Current wind speed in m/s (hover to see current wind gust speed)